sensor_id;sensor_type;location;lat;lon;timestamp;P1;durP1;ratioP1;P2;durP2;ratioP2
1719;SDS011;857;52.872;9.692;2023-01-10T00:00:33;11.70;;;6.00;;
1719;SDS011;857;52.872;9.692;2023-01-10T00:03:01;22.83;;;10.30;;
1719;SDS011;857;52.872;9.692;2023-01-10T00:05:29;18.90;;;10.43;;
1719;SDS011;857;52.872;9.692;2023-01-10T00:07:57;21.03;;;9.47;;
1719;SDS011;857;52.872;9.692;2023-01-10T00:10:28;17.23;;;8.53;;
1719;SDS011;857;52.872;9.692;2023-01-10T00:12:55;24.00;;;11.10;;
1719;SDS011;857;52.872;9.692;2023-01-10T00:15:41;16.90;;;10.40;;
1719;SDS011;857;52.872;9.692;2023-01-10T00:18:08;16.47;;;10.13;;
1719;SDS011;857;52.872;9.692;2023-01-10T00:20:36;19.63;;;9.97;;
1719;SDS011;857;52.872;9.692;2023-01-10T00:23:04;16.33;;;10.73;;
1719;SDS011;857;52.872;9.692;2023-01-10T00:25:33;19.40;;;10.23;;
1719;SDS011;857;52.872;9.692;2023-01-10T00:28:01;21.73;;;11.57;;
1719;SDS011;857;52.872;9.692;2023-01-10T00:30:41;21.77;;;11.60;;
1719;SDS011;857;52.872;9.692;2023-01-10T00:33:09;21.27;;;11.10;;
1719;SDS011;857;52.872;9.692;2023-01-10T00:35:44;21.13;;;10.63;;
1719;SDS011;857;52.872;9.692;2023-01-10T00:38:11;20.17;;;10.63;;
1719;SDS011;857;52.872;9.692;2023-01-10T00:40:41;20.10;;;11.60;;
1719;SDS011;857;52.872;9.692;2023-01-10T00:43:08;21.37;;;11.97;;
1719;SDS011;857;52.872;9.692;2023-01-10T00:45:53;18.70;;;11.40;;
1719;SDS011;857;52.872;9.692;2023-01-10T00:48:22;18.70;;;12.00;;
1719;SDS011;857;52.872;9.692;2023-01-10T00:50:50;23.17;;;11.50;;
1719;SDS011;857;52.872;9.692;2023-01-10T00:53:17;17.97;;;10.73;;
1719;SDS011;857;52.872;9.692;2023-01-10T00:55:46;21.57;;;11.43;;
1719;SDS011;857;52.872;9.692;2023-01-10T00:58:15;22.20;;;12.90;;
1719;SDS011;857;52.872;9.692;2023-01-10T01:00:43;20.73;;;11.40;;
1719;SDS011;857;52.872;9.692;2023-01-10T01:03:14;25.60;;;13.23;;
1719;SDS011;857;52.872;9.692;2023-01-10T01:05:42;21.97;;;12.17;;
1719;SDS011;857;52.872;9.692;2023-01-10T01:08:10;21.00;;;12.10;;
1719;SDS011;857;52.872;9.692;2023-01-10T01:10:38;21.00;;;12.93;;
1719;SDS011;857;52.872;9.692;2023-01-10T01:13:08;21.47;;;11.60;;
1719;SDS011;857;52.872;9.692;2023-01-10T01:15:36;18.67;;;11.63;;
1719;SDS011;857;52.872;9.692;2023-01-10T01:18:04;22.53;;;12.67;;
1719;SDS011;857;52.872;9.692;2023-01-10T01:20:32;20.47;;;12.50;;
1719;SDS011;857;52.872;9.692;2023-01-10T01:23:00;24.57;;;12.10;;
1719;SDS011;857;52.872;9.692;2023-01-10T01:25:28;24.77;;;12.10;;
1719;SDS011;857;52.872;9.692;2023-01-10T01:27:55;22.77;;;12.37;;
1719;SDS011;857;52.872;9.692;2023-01-10T01:30:24;23.40;;;11.77;;
1719;SDS011;857;52.872;9.692;2023-01-10T01:32:52;20.47;;;11.93;;
1719;SDS011;857;52.872;9.692;2023-01-10T01:35:20;23.00;;;14.20;;
1719;SDS011;857;52.872;9.692;2023-01-10T01:37:49;17.70;;;11.60;;
1719;SDS011;857;52.872;9.692;2023-01-10T01:40:17;22.03;;;12.73;;
1719;SDS011;857;52.872;9.692;2023-01-10T01:42:46;21.37;;;11.50;;
1719;SDS011;857;52.872;9.692;2023-01-10T01:48:08;18.23;;;9.77;;
1719;SDS011;857;52.872;9.692;2023-01-10T01:50:40;21.87;;;12.23;;
1719;SDS011;857;52.872;9.692;2023-01-10T01:53:10;15.20;;;9.00;;
1719;SDS011;857;52.872;9.692;2023-01-10T01:55:39;23.17;;;12.37;;
1719;SDS011;857;52.872;9.692;2023-01-10T01:58:09;20.40;;;10.97;;
1719;SDS011;857;52.872;9.692;2023-01-10T02:00:39;18.50;;;12.00;;
1719;SDS011;857;52.872;9.692;2023-01-10T02:03:09;18.23;;;11.90;;
1719;SDS011;857;52.872;9.692;2023-01-10T02:05:37;19.70;;;11.70;;
1719;SDS011;857;52.872;9.692;2023-01-10T02:08:05;19.33;;;11.80;;
1719;SDS011;857;52.872;9.692;2023-01-10T02:10:35;20.17;;;11.67;;
1719;SDS011;857;52.872;9.692;2023-01-10T02:13:05;20.37;;;10.97;;
1719;SDS011;857;52.872;9.692;2023-01-10T02:15:33;19.90;;;11.33;;
1719;SDS011;857;52.872;9.692;2023-01-10T02:18:01;17.00;;;10.00;;
1719;SDS011;857;52.872;9.692;2023-01-10T02:20:33;21.27;;;12.10;;
1719;SDS011;857;52.872;9.692;2023-01-10T02:25:58;20.70;;;11.13;;
1719;SDS011;857;52.872;9.692;2023-01-10T02:28:49;17.07;;;10.43;;
1719;SDS011;857;52.872;9.692;2023-01-10T02:31:22;19.40;;;11.20;;
1719;SDS011;857;52.872;9.692;2023-01-10T02:33:56;18.00;;;11.20;;
1719;SDS011;857;52.872;9.692;2023-01-10T02:36:28;20.43;;;11.13;;
1719;SDS011;857;52.872;9.692;2023-01-10T02:39:00;19.43;;;10.97;;
1719;SDS011;857;52.872;9.692;2023-01-10T02:41:30;15.67;;;10.33;;
1719;SDS011;857;52.872;9.692;2023-01-10T02:44:03;17.00;;;8.93;;
1719;SDS011;857;52.872;9.692;2023-01-10T02:46:33;19.33;;;9.90;;
1719;SDS011;857;52.872;9.692;2023-01-10T02:49:03;16.40;;;8.87;;
1719;SDS011;857;52.872;9.692;2023-01-10T02:51:31;17.30;;;9.30;;
1719;SDS011;857;52.872;9.692;2023-01-10T02:53:59;15.10;;;8.80;;
1719;SDS011;857;52.872;9.692;2023-01-10T02:56:38;15.73;;;9.43;;
1719;SDS011;857;52.872;9.692;2023-01-10T03:01:54;17.03;;;8.40;;
1719;SDS011;857;52.872;9.692;2023-01-10T03:04:30;18.30;;;9.80;;
1719;SDS011;857;52.872;9.692;2023-01-10T03:07:01;12.90;;;8.00;;
1719;SDS011;857;52.872;9.692;2023-01-10T03:09:32;13.47;;;8.67;;
1719;SDS011;857;52.872;9.692;2023-01-10T03:12:03;13.27;;;8.07;;
1719;SDS011;857;52.872;9.692;2023-01-10T03:14:33;12.00;;;7.93;;
1719;SDS011;857;52.872;9.692;2023-01-10T03:17:04;15.27;;;8.17;;
1719;SDS011;857;52.872;9.692;2023-01-10T03:19:36;14.67;;;8.50;;
1719;SDS011;857;52.872;9.692;2023-01-10T03:22:06;14.77;;;7.97;;
1719;SDS011;857;52.872;9.692;2023-01-10T03:24:35;14.37;;;8.80;;
1719;SDS011;857;52.872;9.692;2023-01-10T03:27:06;13.57;;;7.90;;
1719;SDS011;857;52.872;9.692;2023-01-10T03:29:36;17.43;;;7.97;;
1719;SDS011;857;52.872;9.692;2023-01-10T03:32:06;19.47;;;7.80;;
1719;SDS011;857;52.872;9.692;2023-01-10T03:34:37;14.83;;;7.50;;
1719;SDS011;857;52.872;9.692;2023-01-10T03:37:08;14.60;;;7.93;;
1719;SDS011;857;52.872;9.692;2023-01-10T03:39:39;12.37;;;7.17;;
1719;SDS011;857;52.872;9.692;2023-01-10T03:42:09;12.67;;;7.00;;
1719;SDS011;857;52.872;9.692;2023-01-10T03:44:41;13.10;;;6.90;;
1719;SDS011;857;52.872;9.692;2023-01-10T03:47:12;11.10;;;6.57;;
1719;SDS011;857;52.872;9.692;2023-01-10T03:49:43;13.67;;;7.37;;
1719;SDS011;857;52.872;9.692;2023-01-10T03:52:13;12.40;;;5.27;;
1719;SDS011;857;52.872;9.692;2023-01-10T03:54:42;14.80;;;6.90;;
1719;SDS011;857;52.872;9.692;2023-01-10T03:57:14;8.60;;;5.73;;
1719;SDS011;857;52.872;9.692;2023-01-10T03:59:42;9.50;;;5.53;;
1719;SDS011;857;52.872;9.692;2023-01-10T04:02:10;13.50;;;6.23;;
1719;SDS011;857;52.872;9.692;2023-01-10T04:04:37;14.17;;;7.10;;
1719;SDS011;857;52.872;9.692;2023-01-10T04:07:06;10.63;;;6.80;;
1719;SDS011;857;52.872;9.692;2023-01-10T04:09:34;12.50;;;6.93;;
1719;SDS011;857;52.872;9.692;2023-01-10T04:12:02;13.83;;;7.83;;
1719;SDS011;857;52.872;9.692;2023-01-10T04:14:30;10.90;;;6.37;;
1719;SDS011;857;52.872;9.692;2023-01-10T04:16:58;12.67;;;6.40;;
1719;SDS011;857;52.872;9.692;2023-01-10T04:19:26;10.07;;;5.70;;
1719;SDS011;857;52.872;9.692;2023-01-10T04:21:53;14.53;;;6.67;;
1719;SDS011;857;52.872;9.692;2023-01-10T04:24:22;12.40;;;6.10;;
1719;SDS011;857;52.872;9.692;2023-01-10T04:26:50;10.17;;;6.20;;
1719;SDS011;857;52.872;9.692;2023-01-10T04:29:18;14.67;;;6.13;;
1719;SDS011;857;52.872;9.692;2023-01-10T04:31:46;13.47;;;7.07;;
1719;SDS011;857;52.872;9.692;2023-01-10T04:34:14;8.60;;;5.03;;
1719;SDS011;857;52.872;9.692;2023-01-10T04:36:41;10.80;;;6.07;;
1719;SDS011;857;52.872;9.692;2023-01-10T04:39:09;8.70;;;5.33;;
1719;SDS011;857;52.872;9.692;2023-01-10T04:41:38;12.50;;;6.37;;
1719;SDS011;857;52.872;9.692;2023-01-10T04:44:06;14.00;;;5.63;;
1719;SDS011;857;52.872;9.692;2023-01-10T04:46:34;11.80;;;5.93;;
1719;SDS011;857;52.872;9.692;2023-01-10T04:49:01;12.43;;;6.23;;
1719;SDS011;857;52.872;9.692;2023-01-10T04:51:29;10.23;;;5.70;;
1719;SDS011;857;52.872;9.692;2023-01-10T04:53:57;11.27;;;6.07;;
1719;SDS011;857;52.872;9.692;2023-01-10T04:56:25;11.37;;;5.30;;
1719;SDS011;857;52.872;9.692;2023-01-10T04:58:54;12.90;;;6.37;;
1719;SDS011;857;52.872;9.692;2023-01-10T05:01:23;10.57;;;5.23;;
1719;SDS011;857;52.872;9.692;2023-01-10T05:03:51;13.23;;;5.57;;
1719;SDS011;857;52.872;9.692;2023-01-10T05:06:19;11.30;;;5.57;;
1719;SDS011;857;52.872;9.692;2023-01-10T05:08:47;17.60;;;4.47;;
1719;SDS011;857;52.872;9.692;2023-01-10T05:11:15;16.23;;;5.77;;
1719;SDS011;857;52.872;9.692;2023-01-10T05:13:43;7.53;;;5.00;;
1719;SDS011;857;52.872;9.692;2023-01-10T05:16:12;10.80;;;6.10;;
1719;SDS011;857;52.872;9.692;2023-01-10T05:18:40;13.57;;;5.97;;
1719;SDS011;857;52.872;9.692;2023-01-10T05:21:08;10.50;;;6.37;;
1719;SDS011;857;52.872;9.692;2023-01-10T05:23:37;10.20;;;5.60;;
1719;SDS011;857;52.872;9.692;2023-01-10T05:26:05;15.47;;;6.30;;
1719;SDS011;857;52.872;9.692;2023-01-10T05:28:33;14.23;;;6.33;;
1719;SDS011;857;52.872;9.692;2023-01-10T05:31:01;8.87;;;5.60;;
1719;SDS011;857;52.872;9.692;2023-01-10T05:33:30;9.07;;;5.10;;
1719;SDS011;857;52.872;9.692;2023-01-10T05:35:59;13.30;;;5.17;;
1719;SDS011;857;52.872;9.692;2023-01-10T05:38:27;15.03;;;4.90;;
1719;SDS011;857;52.872;9.692;2023-01-10T05:40:55;8.37;;;4.13;;
1719;SDS011;857;52.872;9.692;2023-01-10T05:43:24;12.67;;;4.90;;
1719;SDS011;857;52.872;9.692;2023-01-10T05:45:52;13.43;;;4.90;;
1719;SDS011;857;52.872;9.692;2023-01-10T05:48:19;9.27;;;5.40;;
1719;SDS011;857;52.872;9.692;2023-01-10T05:50:49;11.47;;;5.30;;
1719;SDS011;857;52.872;9.692;2023-01-10T05:53:17;9.47;;;5.27;;
1719;SDS011;857;52.872;9.692;2023-01-10T05:55:51;17.60;;;5.90;;
1719;SDS011;857;52.872;9.692;2023-01-10T05:58:18;11.20;;;4.43;;
1719;SDS011;857;52.872;9.692;2023-01-10T06:00:46;9.27;;;4.60;;
1719;SDS011;857;52.872;9.692;2023-01-10T06:03:14;10.70;;;4.63;;
1719;SDS011;857;52.872;9.692;2023-01-10T06:05:41;13.77;;;4.53;;
1719;SDS011;857;52.872;9.692;2023-01-10T06:08:11;8.87;;;4.50;;
1719;SDS011;857;52.872;9.692;2023-01-10T06:10:38;13.60;;;4.97;;
1719;SDS011;857;52.872;9.692;2023-01-10T06:13:06;14.07;;;5.27;;
1719;SDS011;857;52.872;9.692;2023-01-10T06:15:34;13.37;;;4.60;;
1719;SDS011;857;52.872;9.692;2023-01-10T06:18:02;15.17;;;6.57;;
1719;SDS011;857;52.872;9.692;2023-01-10T06:20:30;11.37;;;4.30;;
1719;SDS011;857;52.872;9.692;2023-01-10T06:22:58;7.67;;;3.50;;
1719;SDS011;857;52.872;9.692;2023-01-10T06:25:30;9.07;;;6.37;;
1719;SDS011;857;52.872;9.692;2023-01-10T06:27:58;11.37;;;5.57;;
1719;SDS011;857;52.872;9.692;2023-01-10T06:30:26;9.47;;;4.83;;
1719;SDS011;857;52.872;9.692;2023-01-10T06:32:54;11.13;;;4.57;;
1719;SDS011;857;52.872;9.692;2023-01-10T06:35:26;11.00;;;5.13;;
1719;SDS011;857;52.872;9.692;2023-01-10T06:37:54;12.33;;;5.40;;
1719;SDS011;857;52.872;9.692;2023-01-10T06:40:22;18.00;;;6.00;;
1719;SDS011;857;52.872;9.692;2023-01-10T06:42:51;7.27;;;3.70;;
1719;SDS011;857;52.872;9.692;2023-01-10T06:45:18;14.20;;;5.43;;
1719;SDS011;857;52.872;9.692;2023-01-10T06:47:46;8.13;;;5.03;;
1719;SDS011;857;52.872;9.692;2023-01-10T06:50:14;15.90;;;7.30;;
1719;SDS011;857;52.872;9.692;2023-01-10T06:52:42;10.33;;;5.43;;
1719;SDS011;857;52.872;9.692;2023-01-10T06:55:09;14.63;;;5.70;;
1719;SDS011;857;52.872;9.692;2023-01-10T06:57:37;10.77;;;5.00;;
1719;SDS011;857;52.872;9.692;2023-01-10T07:00:08;15.40;;;6.17;;
1719;SDS011;857;52.872;9.692;2023-01-10T07:02:36;10.40;;;4.23;;
1719;SDS011;857;52.872;9.692;2023-01-10T07:05:04;10.07;;;4.30;;
1719;SDS011;857;52.872;9.692;2023-01-10T07:07:32;11.33;;;5.00;;
1719;SDS011;857;52.872;9.692;2023-01-10T07:09:59;9.67;;;4.00;;
1719;SDS011;857;52.872;9.692;2023-01-10T07:12:28;13.10;;;5.40;;
1719;SDS011;857;52.872;9.692;2023-01-10T07:14:55;10.87;;;4.57;;
1719;SDS011;857;52.872;9.692;2023-01-10T07:17:24;11.00;;;5.10;;
1719;SDS011;857;52.872;9.692;2023-01-10T07:19:52;13.43;;;4.97;;
1719;SDS011;857;52.872;9.692;2023-01-10T07:22:20;17.60;;;8.77;;
1719;SDS011;857;52.872;9.692;2023-01-10T07:24:48;19.30;;;7.70;;
1719;SDS011;857;52.872;9.692;2023-01-10T07:27:15;13.77;;;5.67;;
1719;SDS011;857;52.872;9.692;2023-01-10T07:29:43;12.57;;;4.30;;
1719;SDS011;857;52.872;9.692;2023-01-10T07:32:11;10.60;;;4.67;;
1719;SDS011;857;52.872;9.692;2023-01-10T07:34:40;10.93;;;4.70;;
1719;SDS011;857;52.872;9.692;2023-01-10T07:37:08;13.47;;;5.20;;
1719;SDS011;857;52.872;9.692;2023-01-10T07:39:36;11.30;;;4.90;;
1719;SDS011;857;52.872;9.692;2023-01-10T07:42:04;12.87;;;6.67;;
1719;SDS011;857;52.872;9.692;2023-01-10T07:44:31;11.57;;;5.40;;
1719;SDS011;857;52.872;9.692;2023-01-10T07:46:59;11.00;;;5.20;;
1719;SDS011;857;52.872;9.692;2023-01-10T07:49:27;11.27;;;5.17;;
1719;SDS011;857;52.872;9.692;2023-01-10T07:51:56;16.53;;;7.07;;
1719;SDS011;857;52.872;9.692;2023-01-10T07:54:23;17.50;;;6.70;;
1719;SDS011;857;52.872;9.692;2023-01-10T07:56:51;10.37;;;4.30;;
1719;SDS011;857;52.872;9.692;2023-01-10T07:59:19;12.43;;;4.90;;
1719;SDS011;857;52.872;9.692;2023-01-10T08:01:47;13.27;;;4.90;;
1719;SDS011;857;52.872;9.692;2023-01-10T08:04:14;10.23;;;4.53;;
1719;SDS011;857;52.872;9.692;2023-01-10T08:06:42;11.30;;;5.20;;
1719;SDS011;857;52.872;9.692;2023-01-10T08:09:11;14.40;;;5.63;;
1719;SDS011;857;52.872;9.692;2023-01-10T08:11:39;9.60;;;5.87;;
1719;SDS011;857;52.872;9.692;2023-01-10T08:14:07;15.13;;;6.37;;
1719;SDS011;857;52.872;9.692;2023-01-10T08:16:34;10.53;;;5.37;;
1719;SDS011;857;52.872;9.692;2023-01-10T08:19:02;13.07;;;5.57;;
1719;SDS011;857;52.872;9.692;2023-01-10T08:21:30;12.27;;;5.80;;
1719;SDS011;857;52.872;9.692;2023-01-10T08:23:57;8.30;;;6.20;;
1719;SDS011;857;52.872;9.692;2023-01-10T08:26:27;11.63;;;5.33;;
1719;SDS011;857;52.872;9.692;2023-01-10T08:28:54;12.40;;;6.63;;
1719;SDS011;857;52.872;9.692;2023-01-10T08:31:22;12.40;;;5.30;;
1719;SDS011;857;52.872;9.692;2023-01-10T08:33:50;14.73;;;7.20;;
1719;SDS011;857;52.872;9.692;2023-01-10T08:36:18;15.30;;;5.50;;
1719;SDS011;857;52.872;9.692;2023-01-10T08:38:48;7.50;;;5.20;;
1719;SDS011;857;52.872;9.692;2023-01-10T08:41:16;23.33;;;6.03;;
1719;SDS011;857;52.872;9.692;2023-01-10T08:43:47;15.07;;;5.87;;
1719;SDS011;857;52.872;9.692;2023-01-10T08:46:15;13.07;;;5.60;;
1719;SDS011;857;52.872;9.692;2023-01-10T08:48:43;13.40;;;5.40;;
1719;SDS011;857;52.872;9.692;2023-01-10T08:51:11;12.67;;;6.43;;
1719;SDS011;857;52.872;9.692;2023-01-10T08:53:39;11.43;;;5.30;;
1719;SDS011;857;52.872;9.692;2023-01-10T08:56:07;13.73;;;5.90;;
1719;SDS011;857;52.872;9.692;2023-01-10T08:58:34;10.17;;;5.43;;
1719;SDS011;857;52.872;9.692;2023-01-10T09:01:04;14.77;;;5.93;;
1719;SDS011;857;52.872;9.692;2023-01-10T09:03:32;13.67;;;6.50;;
1719;SDS011;857;52.872;9.692;2023-01-10T09:06:00;17.43;;;6.37;;
1719;SDS011;857;52.872;9.692;2023-01-10T09:08:28;9.40;;;4.40;;
1719;SDS011;857;52.872;9.692;2023-01-10T09:10:57;11.27;;;6.30;;
1719;SDS011;857;52.872;9.692;2023-01-10T09:13:24;12.00;;;6.77;;
1719;SDS011;857;52.872;9.692;2023-01-10T09:15:54;14.47;;;6.80;;
1719;SDS011;857;52.872;9.692;2023-01-10T09:18:23;16.43;;;6.70;;
1719;SDS011;857;52.872;9.692;2023-01-10T09:20:51;9.43;;;6.30;;
1719;SDS011;857;52.872;9.692;2023-01-10T09:23:20;10.97;;;5.80;;
1719;SDS011;857;52.872;9.692;2023-01-10T09:25:50;17.17;;;7.57;;
1719;SDS011;857;52.872;9.692;2023-01-10T09:28:19;15.47;;;6.37;;
1719;SDS011;857;52.872;9.692;2023-01-10T09:30:48;13.97;;;6.77;;
1719;SDS011;857;52.872;9.692;2023-01-10T09:33:16;22.23;;;7.40;;
1719;SDS011;857;52.872;9.692;2023-01-10T09:35:45;13.70;;;6.93;;
1719;SDS011;857;52.872;9.692;2023-01-10T09:38:14;12.70;;;6.30;;
1719;SDS011;857;52.872;9.692;2023-01-10T09:40:53;18.07;;;6.77;;
1719;SDS011;857;52.872;9.692;2023-01-10T09:43:25;15.70;;;7.57;;
1719;SDS011;857;52.872;9.692;2023-01-10T09:45:58;17.87;;;6.20;;
1719;SDS011;857;52.872;9.692;2023-01-10T09:48:31;12.60;;;6.70;;
1719;SDS011;857;52.872;9.692;2023-01-10T09:51:11;14.70;;;7.60;;
1719;SDS011;857;52.872;9.692;2023-01-10T09:53:42;12.27;;;7.43;;
1719;SDS011;857;52.872;9.692;2023-01-10T09:56:12;13.70;;;6.50;;
1719;SDS011;857;52.872;9.692;2023-01-10T09:58:40;14.33;;;7.73;;
1719;SDS011;857;52.872;9.692;2023-01-10T10:01:10;18.87;;;9.93;;
1719;SDS011;857;52.872;9.692;2023-01-10T10:03:40;15.73;;;8.93;;
1719;SDS011;857;52.872;9.692;2023-01-10T10:06:11;20.00;;;9.23;;
1719;SDS011;857;52.872;9.692;2023-01-10T10:08:40;13.17;;;7.33;;
1719;SDS011;857;52.872;9.692;2023-01-10T10:11:13;15.83;;;7.90;;
1719;SDS011;857;52.872;9.692;2023-01-10T10:13:46;15.07;;;9.43;;
1719;SDS011;857;52.872;9.692;2023-01-10T10:16:19;19.37;;;8.90;;
1719;SDS011;857;52.872;9.692;2023-01-10T10:18:51;17.57;;;8.87;;
1719;SDS011;857;52.872;9.692;2023-01-10T10:21:22;14.40;;;8.93;;
1719;SDS011;857;52.872;9.692;2023-01-10T10:24:06;17.60;;;8.90;;
1719;SDS011;857;52.872;9.692;2023-01-10T10:26:41;16.40;;;9.63;;
1719;SDS011;857;52.872;9.692;2023-01-10T10:32:12;15.97;;;9.17;;
1719;SDS011;857;52.872;9.692;2023-01-10T10:34:44;15.70;;;8.07;;
1719;SDS011;857;52.872;9.692;2023-01-10T10:37:16;14.60;;;9.00;;
1719;SDS011;857;52.872;9.692;2023-01-10T10:39:46;14.97;;;8.40;;
1719;SDS011;857;52.872;9.692;2023-01-10T10:42:16;14.50;;;8.63;;
1719;SDS011;857;52.872;9.692;2023-01-10T10:44:45;19.93;;;8.80;;
1719;SDS011;857;52.872;9.692;2023-01-10T10:47:14;19.70;;;9.07;;
1719;SDS011;857;52.872;9.692;2023-01-10T10:49:43;17.50;;;9.10;;
1719;SDS011;857;52.872;9.692;2023-01-10T10:52:14;12.27;;;8.40;;
1719;SDS011;857;52.872;9.692;2023-01-10T10:54:47;14.33;;;8.30;;
1719;SDS011;857;52.872;9.692;2023-01-10T10:57:15;13.70;;;8.83;;
1719;SDS011;857;52.872;9.692;2023-01-10T10:59:43;11.33;;;5.60;;
1719;SDS011;857;52.872;9.692;2023-01-10T11:02:18;24.27;;;9.43;;
1719;SDS011;857;52.872;9.692;2023-01-10T11:04:47;18.90;;;10.13;;
1719;SDS011;857;52.872;9.692;2023-01-10T11:07:16;15.90;;;8.80;;
1719;SDS011;857;52.872;9.692;2023-01-10T11:09:44;13.13;;;8.33;;
1719;SDS011;857;52.872;9.692;2023-01-10T11:12:15;33.00;;;21.30;;
1719;SDS011;857;52.872;9.692;2023-01-10T11:14:44;18.03;;;10.97;;
1719;SDS011;857;52.872;9.692;2023-01-10T11:17:16;20.53;;;9.20;;
1719;SDS011;857;52.872;9.692;2023-01-10T11:19:52;16.30;;;9.20;;
1719;SDS011;857;52.872;9.692;2023-01-10T11:22:21;14.63;;;8.73;;
1719;SDS011;857;52.872;9.692;2023-01-10T11:24:49;21.83;;;13.20;;
1719;SDS011;857;52.872;9.692;2023-01-10T11:27:19;10.80;;;6.83;;
1719;SDS011;857;52.872;9.692;2023-01-10T11:29:48;19.03;;;9.83;;
1719;SDS011;857;52.872;9.692;2023-01-10T11:32:16;16.87;;;9.33;;
1719;SDS011;857;52.872;9.692;2023-01-10T11:34:48;14.87;;;8.00;;
1719;SDS011;857;52.872;9.692;2023-01-10T11:37:24;15.70;;;8.90;;
1719;SDS011;857;52.872;9.692;2023-01-10T11:40:14;16.27;;;8.27;;
1719;SDS011;857;52.872;9.692;2023-01-10T11:42:43;17.33;;;7.73;;
1719;SDS011;857;52.872;9.692;2023-01-10T11:45:21;16.80;;;8.13;;
1719;SDS011;857;52.872;9.692;2023-01-10T11:47:50;13.40;;;8.20;;
1719;SDS011;857;52.872;9.692;2023-01-10T11:50:20;15.33;;;8.53;;
1719;SDS011;857;52.872;9.692;2023-01-10T11:52:48;18.17;;;9.40;;
1719;SDS011;857;52.872;9.692;2023-01-10T11:55:17;13.53;;;8.53;;
1719;SDS011;857;52.872;9.692;2023-01-10T11:57:47;19.63;;;8.90;;
1719;SDS011;857;52.872;9.692;2023-01-10T12:00:21;17.13;;;11.13;;
1719;SDS011;857;52.872;9.692;2023-01-10T12:02:49;18.77;;;11.00;;
1719;SDS011;857;52.872;9.692;2023-01-10T12:05:18;16.20;;;11.37;;
1719;SDS011;857;52.872;9.692;2023-01-10T12:07:52;18.30;;;9.57;;
1719;SDS011;857;52.872;9.692;2023-01-10T12:10:22;18.87;;;9.20;;
1719;SDS011;857;52.872;9.692;2023-01-10T12:12:55;15.27;;;8.57;;
1719;SDS011;857;52.872;9.692;2023-01-10T12:15:24;13.20;;;7.10;;
1719;SDS011;857;52.872;9.692;2023-01-10T12:17:52;21.07;;;8.27;;
1719;SDS011;857;52.872;9.692;2023-01-10T12:20:21;10.50;;;7.70;;
1719;SDS011;857;52.872;9.692;2023-01-10T12:22:50;18.30;;;10.07;;
1719;SDS011;857;52.872;9.692;2023-01-10T12:25:19;19.97;;;8.77;;
1719;SDS011;857;52.872;9.692;2023-01-10T12:27:48;19.73;;;9.00;;
1719;SDS011;857;52.872;9.692;2023-01-10T12:30:18;26.93;;;10.23;;
1719;SDS011;857;52.872;9.692;2023-01-10T12:32:47;19.83;;;8.87;;
1719;SDS011;857;52.872;9.692;2023-01-10T12:35:18;14.77;;;7.10;;
1719;SDS011;857;52.872;9.692;2023-01-10T12:37:47;16.77;;;8.77;;
1719;SDS011;857;52.872;9.692;2023-01-10T12:40:19;15.10;;;7.50;;
1719;SDS011;857;52.872;9.692;2023-01-10T12:42:51;15.43;;;8.23;;
1719;SDS011;857;52.872;9.692;2023-01-10T12:45:41;14.63;;;7.87;;
1719;SDS011;857;52.872;9.692;2023-01-10T12:48:13;14.80;;;7.40;;
1719;SDS011;857;52.872;9.692;2023-01-10T12:50:43;18.73;;;9.40;;
1719;SDS011;857;52.872;9.692;2023-01-10T12:53:16;17.50;;;8.63;;
1719;SDS011;857;52.872;9.692;2023-01-10T12:55:46;20.03;;;9.90;;
1719;SDS011;857;52.872;9.692;2023-01-10T12:58:16;18.50;;;8.70;;
1719;SDS011;857;52.872;9.692;2023-01-10T13:00:49;18.07;;;9.63;;
1719;SDS011;857;52.872;9.692;2023-01-10T13:03:19;17.50;;;9.50;;
1719;SDS011;857;52.872;9.692;2023-01-10T13:05:47;20.23;;;10.20;;
1719;SDS011;857;52.872;9.692;2023-01-10T13:08:18;17.80;;;10.60;;
1719;SDS011;857;52.872;9.692;2023-01-10T13:10:47;14.97;;;9.40;;
1719;SDS011;857;52.872;9.692;2023-01-10T13:13:17;14.67;;;8.37;;
1719;SDS011;857;52.872;9.692;2023-01-10T13:15:49;16.03;;;10.03;;
1719;SDS011;857;52.872;9.692;2023-01-10T13:18:22;16.90;;;8.50;;
1719;SDS011;857;52.872;9.692;2023-01-10T13:21:00;18.40;;;10.83;;
1719;SDS011;857;52.872;9.692;2023-01-10T13:23:29;17.67;;;8.10;;
1719;SDS011;857;52.872;9.692;2023-01-10T13:25:58;19.33;;;10.33;;
1719;SDS011;857;52.872;9.692;2023-01-10T13:28:27;18.73;;;10.63;;
1719;SDS011;857;52.872;9.692;2023-01-10T13:30:57;18.90;;;9.33;;
1719;SDS011;857;52.872;9.692;2023-01-10T13:33:27;16.27;;;9.37;;
1719;SDS011;857;52.872;9.692;2023-01-10T13:35:56;25.50;;;17.33;;
1719;SDS011;857;52.872;9.692;2023-01-10T13:38:26;20.03;;;10.10;;
1719;SDS011;857;52.872;9.692;2023-01-10T13:40:59;15.27;;;11.90;;
1719;SDS011;857;52.872;9.692;2023-01-10T13:43:35;22.03;;;12.40;;
1719;SDS011;857;52.872;9.692;2023-01-10T13:51:32;15.70;;;10.80;;
1719;SDS011;857;52.872;9.692;2023-01-10T13:54:00;17.43;;;10.10;;
1719;SDS011;857;52.872;9.692;2023-01-10T13:56:30;16.17;;;9.10;;
1719;SDS011;857;52.872;9.692;2023-01-10T13:58:58;21.93;;;10.57;;
1719;SDS011;857;52.872;9.692;2023-01-10T14:01:46;18.53;;;9.40;;
1719;SDS011;857;52.872;9.692;2023-01-10T14:04:34;14.93;;;9.57;;
1719;SDS011;857;52.872;9.692;2023-01-10T14:07:05;15.60;;;8.30;;
1719;SDS011;857;52.872;9.692;2023-01-10T14:09:40;19.97;;;9.80;;
1719;SDS011;857;52.872;9.692;2023-01-10T14:12:17;18.37;;;9.00;;
1719;SDS011;857;52.872;9.692;2023-01-10T14:14:50;20.27;;;10.07;;
1719;SDS011;857;52.872;9.692;2023-01-10T14:17:20;18.00;;;9.83;;
1719;SDS011;857;52.872;9.692;2023-01-10T14:19:49;22.10;;;10.20;;
1719;SDS011;857;52.872;9.692;2023-01-10T14:22:26;17.10;;;10.17;;
1719;SDS011;857;52.872;9.692;2023-01-10T14:24:56;17.67;;;8.70;;
1719;SDS011;857;52.872;9.692;2023-01-10T14:27:24;22.57;;;10.00;;
1719;SDS011;857;52.872;9.692;2023-01-10T14:29:55;20.73;;;9.67;;
1719;SDS011;857;52.872;9.692;2023-01-10T14:32:29;15.33;;;9.17;;
1719;SDS011;857;52.872;9.692;2023-01-10T14:34:59;18.43;;;10.53;;
1719;SDS011;857;52.872;9.692;2023-01-10T14:37:30;19.63;;;10.10;;
1719;SDS011;857;52.872;9.692;2023-01-10T14:40:03;20.50;;;10.03;;
1719;SDS011;857;52.872;9.692;2023-01-10T14:42:31;23.80;;;10.50;;
1719;SDS011;857;52.872;9.692;2023-01-10T14:45:02;21.27;;;11.00;;
1719;SDS011;857;52.872;9.692;2023-01-10T14:47:30;24.47;;;10.30;;
1719;SDS011;857;52.872;9.692;2023-01-10T14:49:58;19.33;;;9.70;;
1719;SDS011;857;52.872;9.692;2023-01-10T14:52:26;19.27;;;10.40;;
1719;SDS011;857;52.872;9.692;2023-01-10T14:55:00;25.00;;;10.30;;
1719;SDS011;857;52.872;9.692;2023-01-10T14:57:29;19.27;;;10.50;;
1719;SDS011;857;52.872;9.692;2023-01-10T15:00:00;21.83;;;10.20;;
1719;SDS011;857;52.872;9.692;2023-01-10T15:02:29;23.80;;;10.60;;
1719;SDS011;857;52.872;9.692;2023-01-10T15:04:57;21.70;;;11.20;;
1719;SDS011;857;52.872;9.692;2023-01-10T15:07:26;25.20;;;11.10;;
1719;SDS011;857;52.872;9.692;2023-01-10T15:09:57;18.20;;;8.73;;
1719;SDS011;857;52.872;9.692;2023-01-10T15:12:27;20.47;;;11.20;;
1719;SDS011;857;52.872;9.692;2023-01-10T15:14:58;19.83;;;9.87;;
1719;SDS011;857;52.872;9.692;2023-01-10T15:17:27;19.30;;;9.80;;
1719;SDS011;857;52.872;9.692;2023-01-10T15:19:54;23.53;;;10.30;;
1719;SDS011;857;52.872;9.692;2023-01-10T15:22:24;19.53;;;9.37;;
1719;SDS011;857;52.872;9.692;2023-01-10T15:24:58;20.47;;;9.00;;
1719;SDS011;857;52.872;9.692;2023-01-10T15:27:26;19.77;;;8.90;;
1719;SDS011;857;52.872;9.692;2023-01-10T15:29:54;24.00;;;9.40;;
1719;SDS011;857;52.872;9.692;2023-01-10T15:32:23;28.60;;;9.87;;
1719;SDS011;857;52.872;9.692;2023-01-10T15:34:52;19.17;;;8.77;;
1719;SDS011;857;52.872;9.692;2023-01-10T15:37:21;22.30;;;9.00;;
1719;SDS011;857;52.872;9.692;2023-01-10T15:39:50;19.83;;;7.77;;
1719;SDS011;857;52.872;9.692;2023-01-10T15:42:20;23.50;;;9.20;;
1719;SDS011;857;52.872;9.692;2023-01-10T15:44:49;17.60;;;7.43;;